createdAt,value
2022-10-09T00:01:20.660Z,3.93
2022-10-09T00:03:50.607Z,3.07
2022-10-09T00:06:21.723Z,2.97
2022-10-09T00:08:49.595Z,3.10
2022-10-09T00:11:24.422Z,2.80
2022-10-09T00:13:53.361Z,3.37
2022-10-09T00:16:22.180Z,2.70
2022-10-09T00:18:50.304Z,2.97
2022-10-09T00:21:23.993Z,3.47
2022-10-09T00:23:53.391Z,3.47
2022-10-09T00:26:21.783Z,2.80
2022-10-09T00:28:49.825Z,2.47
2022-10-09T00:31:17.948Z,2.83
2022-10-09T00:33:45.323Z,2.50
2022-10-09T00:36:18.156Z,2.70
2022-10-09T00:38:45.838Z,2.23
2022-10-09T00:41:16.383Z,2.73
2022-10-09T00:43:50.876Z,3.20
2022-10-09T00:46:46.036Z,2.73
2022-10-09T00:49:22.395Z,2.70
2022-10-09T00:51:51.591Z,3.23
2022-10-09T00:54:24.827Z,3.43
2022-10-09T00:56:53.314Z,2.97
2022-10-09T00:59:21.340Z,2.33
2022-10-09T01:01:48.944Z,2.37
2022-10-09T01:04:16.247Z,2.87
2022-10-09T01:07:16.103Z,2.60
2022-10-09T01:10:35.250Z,2.67
2022-10-09T01:13:31.488Z,2.73
2022-10-09T01:16:24.133Z,2.40
2022-10-09T01:19:15.155Z,2.43
2022-10-09T01:21:52.880Z,2.43
2022-10-09T01:24:28.779Z,2.40
2022-10-09T01:27:11.894Z,3.07
2022-10-09T01:29:44.048Z,2.57
2022-10-09T01:32:14.352Z,2.70
2022-10-09T01:34:44.015Z,3.53
2022-10-09T01:37:13.919Z,3.07
2022-10-09T01:39:44.124Z,2.47
2022-10-09T01:42:13.940Z,3.50
2022-10-09T01:44:41.553Z,3.13
2022-10-09T01:47:15.439Z,3.27
2022-10-09T01:50:04.405Z,3.73
2022-10-09T01:52:41.281Z,3.33
2022-10-09T01:55:42.404Z,4.23
2022-10-09T01:58:12.616Z,3.13
2022-10-09T02:00:46.425Z,3.97
2022-10-09T02:03:16.060Z,3.60
2022-10-09T02:05:46.800Z,3.23
2022-10-09T02:08:18.253Z,3.57
2022-10-09T02:10:48.995Z,3.30
2022-10-09T02:13:17.755Z,3.63
2022-10-09T02:16:05.585Z,3.13
2022-10-09T02:18:40.665Z,3.77
2022-10-09T02:21:46.345Z,3.30
2022-10-09T02:24:21.625Z,3.80
2022-10-09T02:26:49.971Z,3.33
2022-10-09T02:29:17.626Z,3.43
2022-10-09T02:31:45.632Z,2.90
2022-10-09T02:34:16.807Z,3.30
2022-10-09T02:36:44.272Z,3.50
2022-10-09T02:39:11.754Z,3.27
2022-10-09T02:41:39.283Z,3.30
2022-10-09T02:44:07.184Z,2.80
2022-10-09T02:46:35.149Z,2.73
2022-10-09T02:49:02.671Z,2.83
2022-10-09T02:51:31.068Z,2.93
2022-10-09T02:53:59.609Z,3.67
2022-10-09T02:56:27.928Z,2.77
2022-10-09T02:58:55.668Z,3.07
2022-10-09T03:01:23.606Z,3.00
2022-10-09T03:03:51.150Z,2.50
2022-10-09T03:06:24.711Z,2.37
2022-10-09T03:08:53.554Z,3.03
2022-10-09T03:11:23.009Z,3.27
2022-10-09T03:13:50.843Z,3.93
2022-10-09T03:16:27.520Z,4.23
2022-10-09T03:18:55.939Z,3.97
2022-10-09T03:21:25.834Z,3.20
2022-10-09T03:23:54.382Z,3.10
2022-10-09T03:26:24.494Z,2.70
2022-10-09T03:28:53.496Z,3.00
2022-10-09T03:31:49.879Z,3.57
2022-10-09T03:34:11.935Z,2.87
2022-10-09T03:36:39.658Z,2.87
2022-10-09T03:39:07.167Z,2.47
2022-10-09T03:41:34.658Z,2.03
2022-10-09T03:44:02.328Z,2.60
2022-10-09T03:46:29.914Z,2.50
2022-10-09T03:48:57.183Z,2.70
2022-10-09T03:51:24.623Z,2.30
2022-10-09T03:53:51.956Z,2.73
2022-10-09T03:56:19.572Z,2.73
2022-10-09T03:58:47.213Z,2.47
2022-10-09T04:01:14.747Z,2.53
2022-10-09T04:03:41.987Z,2.87
2022-10-09T04:06:09.348Z,2.60
2022-10-09T04:08:36.812Z,2.40
2022-10-09T04:11:04.354Z,2.87
2022-10-09T04:13:31.659Z,2.77
2022-10-09T04:15:59.033Z,2.60
2022-10-09T04:18:26.653Z,2.43
2022-10-09T04:20:55.500Z,3.17
2022-10-09T04:23:25.614Z,2.37
2022-10-09T04:25:54.754Z,2.23
2022-10-09T04:28:23.536Z,2.10
2022-10-09T04:30:51.107Z,2.50
2022-10-09T04:33:19.039Z,2.70
2022-10-09T04:35:50.127Z,2.00
2022-10-09T04:38:18.044Z,2.63
2022-10-09T04:40:55.179Z,2.63
2022-10-09T04:43:22.581Z,1.63
2022-10-09T04:45:50.240Z,1.80
2022-10-09T04:48:18.084Z,2.20
2022-10-09T04:50:45.679Z,2.10
2022-10-09T04:53:12.968Z,1.67
2022-10-09T04:55:41.964Z,2.03
2022-10-09T04:58:11.726Z,2.77
2022-10-09T05:00:44.371Z,1.80
2022-10-09T05:03:12.310Z,2.27
2022-10-09T05:05:39.759Z,2.33
2022-10-09T05:08:07.395Z,1.97
2022-10-09T05:10:34.941Z,2.13
2022-10-09T05:13:02.346Z,2.47
2022-10-09T05:15:30.331Z,2.50
2022-10-09T05:17:57.903Z,2.03
2022-10-09T05:20:25.759Z,2.00
2022-10-09T05:22:53.146Z,2.13
2022-10-09T05:25:20.860Z,2.40
2022-10-09T05:27:48.536Z,2.80
2022-10-09T05:30:17.267Z,1.63
2022-10-09T05:32:44.505Z,2.13
2022-10-09T05:35:12.455Z,2.43
2022-10-09T05:37:39.675Z,2.30
2022-10-09T05:40:07.619Z,1.93
2022-10-09T05:42:34.972Z,4.00
2022-10-09T05:45:02.720Z,2.50
2022-10-09T05:47:30.840Z,2.07
2022-10-09T05:49:58.122Z,3.23
2022-10-09T05:52:25.300Z,2.10
2022-10-09T05:54:52.467Z,2.70
2022-10-09T05:57:19.714Z,2.00
2022-10-09T05:59:46.920Z,2.17
2022-10-09T06:02:14.281Z,2.40
2022-10-09T06:04:41.459Z,2.30
2022-10-09T06:07:10.455Z,2.30
2022-10-09T06:09:37.693Z,1.97
2022-10-09T06:12:05.240Z,2.03
2022-10-09T06:14:32.431Z,2.03
2022-10-09T06:17:01.363Z,2.10
2022-10-09T06:19:28.772Z,2.80
2022-10-09T06:21:56.301Z,2.50
2022-10-09T06:24:28.864Z,2.43
2022-10-09T06:26:57.620Z,2.30
2022-10-09T06:29:26.237Z,2.57
2022-10-09T06:31:53.838Z,2.10
2022-10-09T06:34:21.317Z,2.40
2022-10-09T06:36:49.436Z,2.77
2022-10-09T06:39:16.689Z,1.90
2022-10-09T06:41:44.040Z,2.20
2022-10-09T06:44:24.094Z,2.23
2022-10-09T06:46:51.614Z,2.13
2022-10-09T06:49:19.059Z,2.80
2022-10-09T06:51:46.556Z,2.47
2022-10-09T06:54:17.123Z,2.40
2022-10-09T06:56:45.078Z,2.57
2022-10-09T06:59:13.168Z,2.20
2022-10-09T07:01:40.879Z,2.53
2022-10-09T07:04:13.356Z,2.30
2022-10-09T07:06:44.111Z,1.93
2022-10-09T07:09:14.006Z,2.57
2022-10-09T07:11:44.412Z,1.80
2022-10-09T07:14:13.405Z,2.00
2022-10-09T07:16:43.391Z,2.30
2022-10-09T07:19:12.633Z,2.43
2022-10-09T07:21:43.676Z,2.07
2022-10-09T07:24:12.123Z,2.83
2022-10-09T07:26:42.314Z,3.33
2022-10-09T07:29:11.596Z,2.30
2022-10-09T07:31:39.223Z,3.60
2022-10-09T07:34:07.055Z,2.70
2022-10-09T07:36:35.054Z,2.80
2022-10-09T07:39:03.077Z,3.10
2022-10-09T07:41:30.718Z,2.40
2022-10-09T07:43:58.884Z,2.10
2022-10-09T07:46:33.019Z,1.98
2022-10-09T07:49:03.037Z,2.70
2022-10-09T07:51:31.308Z,1.90
2022-10-09T07:54:00.212Z,2.03
2022-10-09T07:56:33.175Z,1.92
2022-10-09T07:59:03.704Z,1.92
2022-10-09T08:01:33.608Z,2.30
2022-10-09T08:04:01.771Z,1.95
2022-10-09T08:06:29.895Z,2.15
2022-10-09T08:08:59.290Z,1.75
2022-10-09T08:11:28.775Z,2.42
2022-10-09T08:13:56.488Z,2.30
2022-10-09T08:16:25.348Z,2.40
2022-10-09T08:19:00.483Z,2.33
2022-10-09T08:21:28.872Z,2.10
2022-10-09T08:23:58.341Z,1.60
2022-10-09T08:26:28.641Z,2.42
2022-10-09T08:28:59.196Z,2.05
2022-10-09T08:31:27.721Z,2.22
2022-10-09T08:33:56.857Z,2.33
2022-10-09T08:36:25.345Z,2.35
2022-10-09T08:38:53.408Z,2.55
2022-10-09T08:41:32.552Z,2.70
2022-10-09T08:44:17.029Z,2.67
2022-10-09T08:47:03.945Z,2.45
2022-10-09T08:49:48.779Z,2.55
2022-10-09T08:52:49.726Z,2.15
2022-10-09T08:55:36.846Z,2.70
2022-10-09T08:58:05.855Z,2.35
2022-10-09T09:00:54.959Z,2.92
2022-10-09T09:03:59.285Z,3.08
2022-10-09T09:06:56.739Z,2.88
2022-10-09T09:09:53.326Z,2.78
2022-10-09T09:12:49.345Z,2.85
2022-10-09T09:15:25.832Z,2.50
2022-10-09T09:18:01.740Z,3.10
2022-10-09T09:20:54.067Z,2.90
2022-10-09T09:23:30.051Z,2.75
2022-10-09T09:25:59.499Z,2.38
2022-10-09T09:28:28.877Z,2.33
2022-10-09T09:31:01.640Z,2.50
2022-10-09T09:33:44.995Z,1.85
2022-10-09T09:36:22.287Z,1.05
2022-10-09T09:39:26.092Z,1.70
2022-10-09T09:41:41.094Z,1.77
2022-10-09T09:44:11.873Z,1.52
2022-10-09T09:46:40.133Z,1.88
2022-10-09T09:49:36.889Z,1.63
2022-10-09T09:52:08.999Z,1.23
2022-10-09T09:54:39.246Z,1.20
2022-10-09T09:57:15.877Z,1.23
2022-10-09T09:59:45.756Z,1.30
2022-10-09T10:02:18.778Z,1.27
2022-10-09T10:04:56.630Z,1.90
2022-10-09T10:07:35.911Z,2.08
2022-10-09T10:10:23.999Z,1.60
2022-10-09T10:12:54.312Z,1.60
2022-10-09T10:15:29.091Z,1.50
2022-10-09T10:18:13.890Z,1.85
2022-10-09T10:20:51.105Z,1.08
2022-10-09T10:23:34.488Z,1.60
2022-10-09T10:26:08.037Z,1.38
2022-10-09T10:29:08.779Z,1.45
2022-10-09T10:31:51.345Z,1.13
2022-10-09T10:34:54.204Z,1.10
2022-10-09T10:37:31.783Z,1.10
2022-10-09T10:40:17.406Z,1.55
2022-10-09T10:43:02.236Z,1.88
2022-10-09T10:45:49.478Z,1.45
2022-10-09T10:48:28.599Z,1.30
2022-10-09T10:51:04.135Z,1.42
2022-10-09T10:54:05.640Z,1.25
2022-10-09T10:57:07.727Z,1.38
2022-10-09T11:00:05.726Z,1.02
2022-10-09T11:03:00.164Z,1.60
2022-10-09T11:05:53.258Z,1.40
2022-10-09T11:08:42.080Z,1.50
2022-10-09T11:11:27.010Z,1.48
2022-10-09T11:14:13.717Z,1.25
2022-10-09T11:17:12.967Z,1.30
2022-10-09T11:20:06.683Z,1.95
2022-10-09T11:23:11.415Z,1.10
2022-10-09T11:26:05.641Z,1.10
2022-10-09T11:28:43.355Z,1.35
2022-10-09T11:31:29.883Z,1.17
2022-10-09T11:34:09.227Z,1.52
2022-10-09T11:36:43.803Z,0.90
2022-10-09T11:39:23.566Z,1.50
2022-10-09T11:41:53.571Z,1.80
2022-10-09T11:44:41.812Z,1.20
2022-10-09T11:47:32.412Z,1.20
2022-10-09T11:50:40.482Z,1.75
2022-10-09T11:53:15.938Z,2.03
2022-10-09T11:55:43.335Z,1.40
2022-10-09T11:58:20.127Z,1.02
2022-10-09T12:00:53.842Z,1.38
2022-10-09T12:03:33.501Z,1.27
2022-10-09T12:06:20.870Z,1.30
2022-10-09T12:09:03.276Z,1.30
2022-10-09T12:11:32.478Z,1.27
2022-10-09T12:14:05.824Z,1.60
2022-10-09T12:16:41.204Z,1.10
2022-10-09T12:19:29.391Z,1.25
2022-10-09T12:21:59.384Z,1.52
2022-10-09T12:24:31.907Z,0.95
2022-10-09T12:27:03.220Z,1.63
2022-10-09T12:29:40.511Z,1.50
2022-10-09T12:32:26.227Z,1.58
2022-10-09T12:34:55.196Z,1.10
2022-10-09T12:37:35.092Z,1.00
2022-10-09T12:40:15.335Z,1.52
2022-10-09T12:42:44.660Z,1.40
2022-10-09T12:45:26.375Z,1.05
2022-10-09T12:47:54.784Z,1.27
2022-10-09T12:50:31.579Z,1.17
2022-10-09T12:53:02.471Z,1.20
2022-10-09T12:55:35.670Z,1.10
2022-10-09T12:58:08.854Z,1.45
2022-10-09T13:00:36.245Z,1.42
2022-10-09T13:03:03.668Z,1.10
2022-10-09T13:05:42.537Z,1.27
2022-10-09T13:08:28.070Z,1.33
2022-10-09T13:11:07.106Z,1.05
2022-10-09T13:13:34.617Z,1.20
2022-10-09T13:16:06.393Z,1.65
2022-10-09T13:18:33.799Z,1.20
2022-10-09T13:21:22.764Z,1.13
2022-10-09T13:23:50.727Z,1.10
2022-10-09T13:26:29.358Z,1.27
2022-10-09T13:28:59.236Z,1.55
2022-10-09T13:31:26.671Z,1.63
2022-10-09T13:33:53.922Z,1.05
2022-10-09T13:36:21.130Z,1.85
2022-10-09T13:38:49.323Z,1.50
2022-10-09T13:41:20.748Z,1.23
2022-10-09T13:43:48.851Z,0.90
2022-10-09T13:46:16.378Z,1.02
2022-10-09T13:48:43.769Z,1.23
2022-10-09T13:51:11.595Z,1.17
2022-10-09T13:53:39.019Z,1.25
2022-10-09T13:56:07.679Z,1.10
2022-10-09T13:58:35.151Z,1.38
2022-10-09T14:01:02.695Z,1.23
2022-10-09T14:03:30.063Z,1.20
2022-10-09T14:05:59.751Z,1.33
2022-10-09T14:08:27.472Z,1.60
2022-10-09T14:10:55.280Z,1.35
2022-10-09T14:13:22.635Z,1.23
2022-10-09T14:15:50.199Z,1.30
2022-10-09T14:18:17.828Z,1.35
2022-10-09T14:20:45.894Z,1.00
2022-10-09T14:23:14.007Z,1.85
2022-10-09T14:25:41.513Z,1.27
2022-10-09T14:28:09.260Z,1.00
2022-10-09T14:30:40.836Z,1.08
2022-10-09T14:33:08.680Z,0.98
2022-10-09T14:35:36.345Z,1.80
2022-10-09T14:38:03.792Z,0.98
2022-10-09T14:40:31.142Z,1.50
2022-10-09T14:42:58.794Z,1.67
2022-10-09T14:45:26.374Z,1.38
2022-10-09T14:47:53.692Z,1.60
2022-10-09T14:50:21.331Z,1.55
2022-10-09T14:52:49.021Z,1.08
2022-10-09T14:55:16.639Z,1.25
2022-10-09T14:57:44.315Z,1.17
2022-10-09T15:00:12.699Z,1.27
2022-10-09T15:02:40.174Z,1.10
2022-10-09T15:05:08.447Z,1.40
2022-10-09T15:07:35.820Z,1.48
2022-10-09T15:10:03.433Z,1.15
2022-10-09T15:12:30.762Z,1.50
2022-10-09T15:14:57.998Z,1.05
2022-10-09T15:17:25.526Z,1.85
2022-10-09T15:19:54.048Z,1.33
2022-10-09T15:22:21.383Z,1.35
2022-10-09T15:24:49.211Z,1.20
2022-10-09T15:27:16.424Z,1.30
2022-10-09T15:29:43.606Z,1.15
2022-10-09T15:32:10.767Z,1.20
2022-10-09T15:34:41.028Z,1.15
2022-10-09T15:37:09.193Z,1.15
2022-10-09T15:39:36.555Z,1.20
2022-10-09T15:42:04.052Z,1.17
2022-10-09T15:44:31.272Z,1.48
2022-10-09T15:46:58.682Z,1.35
2022-10-09T15:49:25.995Z,2.63
2022-10-09T15:51:53.327Z,1.08
2022-10-09T15:54:20.651Z,1.80
2022-10-09T15:56:47.863Z,1.45
2022-10-09T15:59:17.016Z,1.38
2022-10-09T16:01:44.568Z,1.40
2022-10-09T16:04:12.185Z,1.20
2022-10-09T16:06:39.580Z,1.38
2022-10-09T16:09:07.470Z,1.50
2022-10-09T16:11:34.993Z,2.05
2022-10-09T16:14:02.736Z,1.75
2022-10-09T16:16:30.446Z,1.30
2022-10-09T16:18:58.310Z,1.80
2022-10-09T16:21:28.355Z,2.10
2022-10-09T16:23:59.077Z,1.75
2022-10-09T16:26:28.723Z,1.83
2022-10-09T16:28:56.293Z,1.70
2022-10-09T16:31:30.138Z,1.85
2022-10-09T16:33:58.397Z,1.38
2022-10-09T16:36:26.238Z,1.70
2022-10-09T16:38:54.283Z,1.70
2022-10-09T16:41:22.879Z,1.95
2022-10-09T16:43:53.242Z,1.38
2022-10-09T16:46:30.316Z,1.73
2022-10-09T16:48:58.780Z,1.45
2022-10-09T16:51:29.600Z,1.33
2022-10-09T16:53:59.679Z,2.10
2022-10-09T16:56:32.779Z,2.22
2022-10-09T16:59:04.233Z,2.10
2022-10-09T17:01:32.445Z,1.80
2022-10-09T17:04:00.400Z,2.20
2022-10-09T17:06:28.101Z,2.00
2022-10-09T17:08:57.475Z,1.90
2022-10-09T17:11:26.675Z,1.92
2022-10-09T17:13:57.797Z,2.28
2022-10-09T17:16:29.335Z,2.15
2022-10-09T17:18:57.510Z,1.75
2022-10-09T17:21:27.907Z,1.70
2022-10-09T17:24:00.450Z,1.85
2022-10-09T17:26:29.384Z,1.60
2022-10-09T17:29:00.613Z,1.45
2022-10-09T17:31:28.873Z,1.40
2022-10-09T17:34:00.714Z,1.60
2022-10-09T17:36:30.317Z,2.00
2022-10-09T17:38:57.981Z,1.85
2022-10-09T17:41:26.823Z,3.17
2022-10-09T17:43:55.771Z,2.63
2022-10-09T17:46:24.283Z,3.30
2022-10-09T17:48:56.619Z,3.53
2022-10-09T17:51:25.932Z,3.00
2022-10-09T17:53:54.655Z,2.60
2022-10-09T17:56:22.286Z,2.58
2022-10-09T17:58:50.103Z,2.72
2022-10-09T18:01:18.663Z,3.85
2022-10-09T18:03:46.120Z,3.63
2022-10-09T18:06:17.341Z,3.08
2022-10-09T18:08:45.517Z,3.30
2022-10-09T18:11:16.336Z,3.13
2022-10-09T18:13:45.488Z,3.63
2022-10-09T18:16:24.010Z,3.17
2022-10-09T18:18:51.685Z,2.67
2022-10-09T18:21:19.175Z,2.65
2022-10-09T18:23:47.386Z,2.42
2022-10-09T18:26:17.263Z,2.22
2022-10-09T18:28:48.293Z,2.42
2022-10-09T18:31:20.010Z,2.20
2022-10-09T18:33:47.932Z,2.63
2022-10-09T18:36:20.217Z,1.80
2022-10-09T18:38:55.724Z,2.20
2022-10-09T18:41:23.886Z,2.42
2022-10-09T18:43:53.881Z,2.17
2022-10-09T18:46:24.686Z,2.08
2022-10-09T18:48:54.063Z,2.58
2022-10-09T18:51:25.347Z,2.40
2022-10-09T18:53:55.938Z,2.00
2022-10-09T18:56:23.835Z,2.47
2022-10-09T18:58:52.332Z,1.95
2022-10-09T19:01:20.240Z,2.58
2022-10-09T19:03:50.105Z,2.33
2022-10-09T19:06:19.288Z,2.17
2022-10-09T19:08:47.232Z,2.97
2022-10-09T19:11:14.872Z,2.33
2022-10-09T19:13:43.442Z,2.35
2022-10-09T19:16:10.968Z,1.95
2022-10-09T19:18:39.321Z,1.90
2022-10-09T19:21:07.255Z,2.50
2022-10-09T19:23:34.680Z,2.38
2022-10-09T19:26:02.307Z,1.88
2022-10-09T19:28:36.951Z,2.08
2022-10-09T19:31:05.877Z,1.92
2022-10-09T19:33:33.785Z,2.45
2022-10-09T19:36:01.355Z,2.20
2022-10-09T19:38:28.817Z,2.57
2022-10-09T19:41:01.951Z,2.38
2022-10-09T19:43:29.431Z,1.95
2022-10-09T19:46:25.327Z,1.70
2022-10-09T19:48:52.948Z,2.28
2022-10-09T19:51:23.896Z,2.08
2022-10-09T19:53:53.379Z,2.03
2022-10-09T19:56:25.976Z,1.30
2022-10-09T19:58:54.282Z,2.15
2022-10-09T20:01:25.374Z,2.13
2022-10-09T20:03:55.676Z,1.80
2022-10-09T20:06:23.085Z,2.00
2022-10-09T20:08:50.627Z,1.60
2022-10-09T20:11:20.260Z,1.92
2022-10-09T20:13:52.081Z,1.90
2022-10-09T20:16:23.462Z,2.22
2022-10-09T20:18:50.889Z,2.25
2022-10-09T20:21:19.513Z,2.17
2022-10-09T20:23:46.950Z,1.63
2022-10-09T20:26:16.829Z,1.90
2022-10-09T20:28:45.411Z,1.50
2022-10-09T20:31:18.592Z,1.67
2022-10-09T20:33:47.193Z,1.92
2022-10-09T20:36:24.692Z,1.83
2022-10-09T20:38:55.350Z,1.92
2022-10-09T20:41:23.276Z,2.13
2022-10-09T20:43:52.820Z,1.95
2022-10-09T20:46:21.367Z,1.95
2022-10-09T20:48:48.738Z,1.70
2022-10-09T20:51:17.044Z,1.88
2022-10-09T20:53:44.814Z,1.65
2022-10-09T20:56:14.514Z,1.33
2022-10-09T20:58:42.659Z,1.55
2022-10-09T21:01:11.823Z,1.65
2022-10-09T21:03:39.411Z,1.30
2022-10-09T21:06:09.752Z,1.75
2022-10-09T21:08:38.123Z,1.95
2022-10-09T21:11:07.763Z,1.95
2022-10-09T21:13:36.178Z,1.52
2022-10-09T21:16:09.119Z,1.50
2022-10-09T21:18:37.257Z,1.50
2022-10-09T21:21:06.751Z,1.27
2022-10-09T21:23:34.082Z,1.88
2022-10-09T21:26:01.634Z,1.70
2022-10-09T21:28:29.275Z,1.73
2022-10-09T21:30:56.720Z,1.80
2022-10-09T21:33:24.151Z,1.40
2022-10-09T21:35:55.289Z,1.88
2022-10-09T21:38:23.779Z,1.92
2022-10-09T21:40:51.422Z,1.50
2022-10-09T21:43:18.989Z,1.70
2022-10-09T21:45:49.850Z,1.50
2022-10-09T21:48:17.823Z,2.13
2022-10-09T21:50:45.475Z,1.40
2022-10-09T21:53:13.111Z,2.00
2022-10-09T21:55:40.854Z,1.60
2022-10-09T21:58:08.694Z,1.50
2022-10-09T22:00:36.463Z,1.33
2022-10-09T22:03:04.052Z,2.13
2022-10-09T22:05:31.491Z,1.80
2022-10-09T22:07:59.068Z,1.85
2022-10-09T22:10:26.481Z,1.63
2022-10-09T22:12:54.167Z,1.73
2022-10-09T22:15:21.645Z,1.98
2022-10-09T22:17:49.059Z,1.80
2022-10-09T22:20:16.532Z,1.63
2022-10-09T22:22:43.986Z,1.75
2022-10-09T22:25:11.681Z,1.70
2022-10-09T22:27:39.068Z,1.42
2022-10-09T22:30:07.177Z,1.63
2022-10-09T22:32:34.575Z,2.25
2022-10-09T22:35:01.849Z,1.63
2022-10-09T22:37:29.064Z,2.58
2022-10-09T22:39:56.579Z,2.08
2022-10-09T22:42:23.971Z,2.00
2022-10-09T22:44:51.385Z,1.70
2022-10-09T22:47:18.784Z,1.48
2022-10-09T22:49:46.118Z,1.70
2022-10-09T22:52:13.355Z,1.90
2022-10-09T22:54:40.600Z,2.45
2022-10-09T22:57:07.816Z,2.58
2022-10-09T22:59:35.283Z,1.55
2022-10-09T23:02:02.889Z,1.65
2022-10-09T23:04:30.068Z,1.73
2022-10-09T23:06:59.090Z,1.30
2022-10-09T23:09:31.317Z,1.70
2022-10-09T23:11:59.657Z,1.75
2022-10-09T23:14:27.471Z,1.90
2022-10-09T23:16:54.818Z,1.73
2022-10-09T23:19:22.219Z,2.10
2022-10-09T23:21:49.801Z,2.25
2022-10-09T23:24:17.885Z,2.17
2022-10-09T23:26:46.414Z,1.50
2022-10-09T23:29:17.135Z,2.08
2022-10-09T23:31:45.341Z,2.15
2022-10-09T23:34:12.889Z,2.08
2022-10-09T23:36:40.558Z,2.30
2022-10-09T23:39:07.844Z,1.90
2022-10-09T23:41:35.542Z,2.50
2022-10-09T23:44:03.766Z,2.40
2022-10-09T23:46:37.528Z,1.67
2022-10-09T23:49:05.243Z,1.98
2022-10-09T23:51:32.846Z,1.65
2022-10-09T23:54:00.400Z,1.70
2022-10-09T23:56:30.643Z,1.90
2022-10-09T23:58:59.286Z,2.15
